Terminal Aerodrome Forecast
Issued by NWS

Home | Current Version | Previous Version | Text Only | Print | Product List | Glossary On
Versions: 1 2 3 4 5 6 7 8 9 10 11 12 13 14
000
FTUS42 KJAX 192300
TAFCRG
TAF
KCRG 192329Z 2000/2024 03004KT P6SM FEW040 SCT250
     FM200800 04003KT P6SM FEW045 BKN250
     FM201500 07008KT P6SM BKN045=

USA.gov is the U.S. government's official web portal to all federal, state and local government web resources and services.